Consulta les dades en temps real de l'estació municipal de Vilanova de Sau
| Hora UTC | 07:15 |
|---|---|
| Temperatura | 23.0 ºC |
| Humitat | 62.2 % |
| Pressió | 1022.0 hPa |
| Pluja | 0.0 mm |
| Velocitat vent | 0.7 km/h |
| Direcció vent | N |
| Radiació solar | 264.9 W/m² |
| Temperatura (ºC) | Humitat (%) | Pressió (hPa) | Velocitat vent (km/h) | Precipitació (mm) | Radiació solar (W/m²) | |||||||||||||
|---|---|---|---|---|---|---|---|---|---|---|---|---|---|---|---|---|---|---|
| Hora UTC | Aire | Humitat | Pressió | Vel. | Dir. | Vel. Max | Dir. | Intent. màx 5 min. | Rad. Sol. | |||||||||
| 00:05 | 20.5 | 69.3 | 1022.3 | 0.0 | NNE | 0.0 | N | 0.0 | 0.2 | |||||||||
| 00:10 | 20.6 | 69.1 | 1022.3 | 0.0 | NNE | 0.0 | N | 0.0 | 0.2 | |||||||||
| 00:15 | 20.6 | 69.1 | 1022.3 | 0.0 | NNE | 0.0 | N | 0.0 | 0.2 | |||||||||
| 00:20 | 20.5 | 69.2 | 1022.3 | 0.0 | NNE | 0.0 | N | 0.0 | 0.2 | |||||||||
| 00:25 | 20.4 | 69.7 | 1022.3 | 0.0 | NNE | 0.0 | N | 0.0 | 0.1 | |||||||||
| 00:30 | 20.3 | 69.9 | 1022.3 | 0.0 | NNE | 0.0 | N | 0.0 | 0.1 | |||||||||
| 00:35 | 20.3 | 70.1 | 1022.2 | 0.0 | NNE | 0.0 | N | 0.0 | 0.1 | |||||||||
| 00:40 | 20.1 | 70.4 | 1022.2 | 0.0 | NNE | 0.0 | N | 0.0 | 0.2 | |||||||||
| 00:45 | 20.1 | 71.1 | 1022.2 | 0.0 | NNE | 0.0 | N | 0.0 | 0.2 | |||||||||
| 00:50 | 20.0 | 71.6 | 1022.2 | 0.0 | NNE | 0.0 | N | 0.0 | 0.2 | |||||||||
| 00:55 | 20.1 | 71.2 | 1022.2 | 0.0 | NNE | 0.0 | N | 0.0 | 0.2 | |||||||||
| 01:00 | 20.1 | 70.9 | 1022.2 | 0.0 | NNE | 0.0 | N | 0.0 | 0.2 | |||||||||
| 01:05 | 20.0 | 71.2 | 1022.1 | 0.0 | NNE | 0.0 | N | 0.0 | 0.2 | |||||||||
| 01:10 | 19.9 | 71.3 | 1022.1 | 0.0 | NNE | 0.0 | N | 0.0 | 0.2 | |||||||||
| 01:15 | 19.9 | 71.3 | 1022.1 | 0.0 | NNE | 0.0 | N | 0.0 | 0.2 | |||||||||
| 01:20 | 19.9 | 71.6 | 1022.1 | 0.0 | NNE | 0.0 | N | 0.0 | 0.1 | |||||||||
| 01:25 | 19.9 | 71.9 | 1022.1 | 0.0 | NNE | 0.0 | N | 0.0 | 0.1 | |||||||||
| 01:30 | 19.8 | 72.1 | 1022.1 | 0.0 | NNE | 0.0 | N | 0.0 | 0.1 | |||||||||
| 01:35 | 19.7 | 72.3 | 1022.1 | 0.0 | NNE | 0.0 | N | 0.0 | 0.2 | |||||||||
| 01:40 | 19.8 | 72.3 | 1022.1 | 0.0 | NNE | 0.0 | N | 0.0 | 0.2 | |||||||||
| 01:45 | 19.7 | 72.5 | 1022.1 | 0.0 | NNE | 0.0 | N | 0.0 | 0.2 | |||||||||
| 01:50 | 19.6 | 73.0 | 1022.0 | 0.0 | NNE | 0.0 | N | 0.0 | 0.2 | |||||||||
| 01:55 | 19.6 | 73.3 | 1022.0 | 0.0 | NNE | 0.0 | N | 0.0 | 0.2 | |||||||||
| 02:00 | 19.5 | 73.6 | 1022.0 | 0.0 | NNE | 0.0 | N | 0.0 | 0.2 | |||||||||
| 02:05 | 19.5 | 73.7 | 1022.0 | 0.0 | NNE | 0.0 | N | 0.0 | 0.2 | |||||||||
| 02:10 | 19.4 | 74.1 | 1022.0 | 0.0 | NNE | 0.0 | N | 0.0 | 0.2 | |||||||||
| 02:15 | 19.4 | 74.2 | 1022.0 | 0.0 | NNE | 0.0 | N | 0.0 | 0.1 | |||||||||
| 02:20 | 19.3 | 74.2 | 1022.0 | 0.0 | NNE | 0.0 | N | 0.0 | 0.1 | |||||||||
| 02:25 | 19.2 | 74.5 | 1022.0 | 0.0 | NNE | 0.0 | N | 0.0 | 0.2 | |||||||||
| 02:30 | 19.2 | 74.7 | 1022.0 | 0.0 | NNE | 0.0 | N | 0.0 | 0.2 | |||||||||
| 02:35 | 19.2 | 75.0 | 1021.9 | 0.0 | NNE | 0.0 | N | 0.0 | 0.2 | |||||||||
| 02:40 | 19.1 | 74.9 | 1021.9 | 0.0 | NNE | 0.0 | N | 0.0 | 0.2 | |||||||||
| 02:45 | 19.1 | 75.2 | 1021.9 | 0.0 | NNE | 0.0 | N | 0.0 | 0.3 | |||||||||
| 02:50 | 19.2 | 75.0 | 1021.9 | 0.0 | NNE | 0.0 | N | 0.0 | 0.2 | |||||||||
| 02:55 | 19.1 | 75.0 | 1021.9 | 0.0 | NNE | 0.0 | N | 0.0 | 0.2 | |||||||||
| 03:00 | 19.1 | 75.1 | 1021.9 | 0.0 | NNE | 0.0 | N | 0.0 | 0.1 | |||||||||
| 03:05 | 19.0 | 75.3 | 1021.9 | 0.0 | NNE | 0.0 | N | 0.0 | 0.2 | |||||||||
| 03:10 | 19.0 | 75.6 | 1021.9 | 0.0 | NNE | 0.0 | N | 0.0 | 0.2 | |||||||||
| 03:15 | 18.9 | 76.0 | 1021.9 | 0.0 | NNE | 0.0 | N | 0.0 | 0.1 | |||||||||
| 03:20 | 18.8 | 76.4 | 1021.9 | 0.0 | NNE | 0.0 | N | 0.0 | 0.1 | |||||||||
| 03:25 | 18.7 | 76.9 | 1021.8 | 0.0 | NNE | 0.0 | N | 0.0 | 0.2 | |||||||||
| 03:30 | 18.6 | 77.2 | 1021.8 | 0.0 | NNE | 0.0 | N | 0.0 | 0.2 | |||||||||
| 03:35 | 18.6 | 77.5 | 1021.8 | 0.0 | NNE | 0.0 | N | 0.0 | 0.2 | |||||||||
| 03:40 | 18.6 | 77.7 | 1021.7 | 0.0 | NNE | 0.0 | N | 0.0 | 0.2 | |||||||||
| 03:45 | 18.5 | 77.6 | 1021.7 | 0.0 | NNE | 0.0 | N | 0.0 | 0.2 | |||||||||
| 03:50 | 18.5 | 77.5 | 1021.7 | 0.0 | NNE | 0.0 | N | 0.0 | 0.2 | |||||||||
| 03:55 | 18.5 | 77.5 | 1021.6 | 0.0 | NNE | 0.0 | N | 0.0 | 0.1 | |||||||||
| 04:00 | 18.4 | 77.9 | 1021.6 | 0.0 | NNE | 0.0 | N | 0.0 | 0.1 | |||||||||
| 04:05 | 18.4 | 78.1 | 1021.6 | 0.0 | NNE | 0.0 | N | 0.0 | 0.2 | |||||||||
| 04:10 | 18.4 | 78.4 | 1021.6 | 0.0 | NNE | 0.0 | N | 0.0 | 0.2 | |||||||||
| 04:15 | 18.3 | 78.6 | 1021.6 | 0.0 | NNE | 0.0 | N | 0.0 | 0.1 | |||||||||
| 04:20 | 18.3 | 78.7 | 1021.6 | 0.0 | NNE | 0.0 | N | 0.0 | 0.2 | |||||||||
| 04:25 | 18.2 | 79.0 | 1021.6 | 0.0 | NNE | 0.0 | N | 0.0 | 0.2 | |||||||||
| 04:30 | 18.2 | 79.0 | 1021.6 | 0.0 | NNE | 0.0 | N | 0.0 | 0.2 | |||||||||
| 04:35 | 18.1 | 79.1 | 1021.6 | 0.0 | NNE | 0.0 | N | 0.0 | 0.2 | |||||||||
| 04:40 | 18.1 | 79.1 | 1021.5 | 0.0 | NNE | 0.0 | N | 0.0 | 0.2 | |||||||||
| 04:45 | 18.1 | 79.4 | 1021.5 | 0.0 | NNE | 0.0 | N | 0.0 | 0.2 | |||||||||
| 04:50 | 18.0 | 79.8 | 1021.5 | 0.0 | NNE | 0.0 | N | 0.0 | 0.2 | |||||||||
| 04:55 | 18.0 | 79.8 | 1021.5 | 0.0 | NNE | 0.0 | N | 0.0 | 0.2 | |||||||||
| 05:00 | 18.0 | 80.1 | 1021.5 | 0.0 | NNE | 0.0 | N | 0.0 | 0.2 | |||||||||
| 05:05 | 17.9 | 80.2 | 1021.5 | 0.0 | NNE | 0.0 | N | 0.0 | 0.5 | |||||||||
| 05:10 | 17.9 | 80.4 | 1021.5 | 0.0 | NNE | 0.0 | N | 0.0 | 1.1 | |||||||||
| 05:15 | 17.8 | 80.6 | 1021.6 | 0.0 | NNE | 0.0 | N | 0.0 | 2.1 | |||||||||
| 05:20 | 17.8 | 80.7 | 1021.6 | 0.0 | NNE | 0.0 | N | 0.0 | 4.0 | |||||||||
| 05:25 | 17.8 | 80.7 | 1021.6 | 0.0 | NNE | 0.0 | N | 0.0 | 6.1 | |||||||||
| 05:30 | 17.8 | 80.8 | 1021.7 | 0.0 | NNE | 0.0 | N | 0.0 | 9.6 | |||||||||
| 05:35 | 17.8 | 80.9 | 1021.7 | 0.0 | NNE | 0.0 | N | 0.0 | 13.5 | |||||||||
| 05:40 | 17.9 | 80.3 | 1021.7 | 0.0 | NNE | 0.0 | N | 0.0 | 18.8 | |||||||||
| 05:45 | 18.1 | 79.8 | 1021.7 | 0.0 | NNE | 0.0 | N | 0.0 | 24.5 | |||||||||
| 05:50 | 18.2 | 79.8 | 1021.7 | 0.0 | NNE | 0.0 | N | 0.0 | 30.1 | |||||||||
| 05:55 | 18.3 | 79.6 | 1021.7 | 0.0 | NNE | 0.0 | N | 0.0 | 41.1 | |||||||||
| 06:00 | 18.4 | 79.5 | 1021.8 | 0.0 | NNE | 0.0 | N | 0.0 | 54.8 | |||||||||
| 06:05 | 18.6 | 79.1 | 1021.8 | 0.0 | NNE | 0.0 | N | 0.0 | 64.3 | |||||||||
| 06:10 | 19.0 | 78.3 | 1021.8 | 0.0 | NNE | 0.0 | N | 0.0 | 67.5 | |||||||||
| 06:15 | 19.3 | 77.0 | 1021.8 | 0.0 | NNE | 0.0 | N | 0.0 | 58.1 | |||||||||
| 06:20 | 19.7 | 76.2 | 1021.9 | 0.0 | NNE | 0.0 | N | 0.0 | 62.4 | |||||||||
| 06:25 | 19.9 | 75.0 | 1022.0 | 0.0 | NNE | 0.0 | N | 0.0 | 63.6 | |||||||||
| 06:30 | 20.2 | 73.9 | 1022.0 | 0.0 | NNE | 0.0 | N | 0.0 | 68.2 | |||||||||
| 06:35 | 20.4 | 73.6 | 1022.0 | 0.0 | NNE | 0.0 | N | 0.0 | 73.3 | |||||||||
| 06:40 | 20.6 | 71.7 | 1022.0 | 0.0 | NNE | 0.0 | N | 0.0 | 79.8 | |||||||||
| 06:45 | 20.8 | 71.0 | 1022.0 | 0.0 | NNE | 0.0 | N | 0.0 | 138.5 | |||||||||
| 06:50 | 21.2 | 69.8 | 1021.9 | 0.0 | NNE | 0.0 | N | 0.0 | 177.4 | |||||||||
| 06:55 | 21.7 | 68.1 | 1022.0 | 0.0 | NNE | 0.0 | N | 0.0 | 192.7 | |||||||||
| 07:00 | 22.1 | 66.1 | 1022.0 | 0.0 | NNE | 0.0 | N | 0.0 | 205.3 | |||||||||
| 07:05 | 22.8 | 63.1 | 1022.0 | 0.0 | NNE | 0.0 | N | 0.0 | 226.8 | |||||||||
| 07:10 | 23.1 | 62.6 | 1022.0 | 0.0 | NNE | 0.0 | N | 0.0 | 249.0 | |||||||||
| 07:15 | 23.0 | 62.2 | 1022.0 | 0.7 | N | 6.1 | N | 0.0 | 264.9 | |||||||||
| Màxima | 23.1 | 80.9 | 1022.3 | 0.7 | N | 6.1 | N | 0.0 | 264.9 | |||||||||
| Mínima | 17.8 | 62.2 | 1021.5 | |||||||||||||||
| Total | 0.0 | |||||||||||||||||